createdAt,value
2023-01-19T00:01:58.961Z,27.25
2023-01-19T00:05:02.021Z,35.97
2023-01-19T00:08:14.871Z,36.50
2023-01-19T00:11:18.180Z,29.90
2023-01-19T00:14:20.428Z,29.98
2023-01-19T00:17:22.858Z,29.05
2023-01-19T00:20:25.232Z,26.15
2023-01-19T00:23:27.491Z,29.00
2023-01-19T00:26:29.906Z,33.80
2023-01-19T00:29:33.744Z,32.05
2023-01-19T00:32:36.032Z,31.27
2023-01-19T00:35:38.352Z,31.17
2023-01-19T00:38:40.666Z,31.20
2023-01-19T00:42:09.218Z,30.67
2023-01-19T00:45:22.921Z,26.02
2023-01-19T00:48:25.276Z,25.52
2023-01-19T00:51:27.646Z,26.02
2023-01-19T00:54:29.900Z,27.92
2023-01-19T00:57:32.218Z,33.80
2023-01-19T01:00:34.480Z,27.30
2023-01-19T01:03:36.911Z,26.45
2023-01-19T01:06:39.194Z,24.88
2023-01-19T01:09:41.521Z,23.60
2023-01-19T01:12:57.667Z,25.10
2023-01-19T01:16:08.083Z,24.48
2023-01-19T01:22:12.648Z,23.05
2023-01-19T01:25:16.507Z,23.45
2023-01-19T01:28:18.868Z,22.95
2023-01-19T01:31:21.226Z,24.33
2023-01-19T01:34:23.545Z,23.63
2023-01-19T01:37:25.915Z,28.48
2023-01-19T01:40:28.748Z,31.27
2023-01-19T01:43:48.834Z,27.52
2023-01-19T01:46:51.182Z,24.48
2023-01-19T01:49:58.400Z,23.42
2023-01-19T01:53:08.302Z,31.80
2023-01-19T01:56:14.710Z,26.40
2023-01-19T01:59:27.412Z,24.38
2023-01-19T02:02:49.515Z,24.05
2023-01-19T02:05:52.864Z,27.05
2023-01-19T02:09:24.545Z,21.92
2023-01-19T02:12:46.127Z,24.17
2023-01-19T02:15:57.900Z,25.40
2023-01-19T02:19:01.235Z,21.40
2023-01-19T02:22:12.103Z,24.35
2023-01-19T02:25:14.830Z,22.23
2023-01-19T02:28:18.038Z,23.08
2023-01-19T02:31:20.470Z,24.83
2023-01-19T02:34:23.349Z,24.95
2023-01-19T02:37:26.454Z,24.27
2023-01-19T02:40:29.147Z,21.67
2023-01-19T02:43:32.118Z,23.50
2023-01-19T02:46:34.857Z,20.45
2023-01-19T02:49:37.688Z,23.90
2023-01-19T02:52:39.962Z,25.40
2023-01-19T02:55:47.030Z,26.85
2023-01-19T02:59:18.475Z,25.77
2023-01-19T03:02:29.728Z,24.15
2023-01-19T03:05:41.143Z,26.00
2023-01-19T03:08:50.140Z,26.52
2023-01-19T03:12:10.614Z,30.23
2023-01-19T03:15:21.119Z,23.95
2023-01-19T03:18:26.333Z,25.52
2023-01-19T03:21:29.480Z,25.55
2023-01-19T03:24:36.973Z,19.88
2023-01-19T03:27:41.323Z,24.13
2023-01-19T03:30:47.202Z,26.58
2023-01-19T03:33:52.827Z,23.25
2023-01-19T03:36:58.605Z,23.90
2023-01-19T03:40:01.144Z,25.38
2023-01-19T03:43:04.388Z,25.30
2023-01-19T03:46:07.430Z,20.17
2023-01-19T03:49:10.149Z,22.13
2023-01-19T03:52:13.022Z,23.52
2023-01-19T03:55:15.294Z,22.88
2023-01-19T03:58:18.099Z,22.98
2023-01-19T04:01:23.104Z,23.30
2023-01-19T04:04:25.721Z,22.98
2023-01-19T04:07:28.637Z,24.33
2023-01-19T04:10:30.954Z,17.83
2023-01-19T04:13:33.252Z,24.08
2023-01-19T04:16:35.880Z,23.90
2023-01-19T04:19:38.196Z,23.55
2023-01-19T04:22:40.608Z,21.83
2023-01-19T04:25:42.926Z,23.58
2023-01-19T04:28:45.345Z,24.45
2023-01-19T04:31:47.618Z,24.33
2023-01-19T04:34:49.883Z,22.95
2023-01-19T04:37:52.303Z,28.95
2023-01-19T04:40:55.244Z,26.88
2023-01-19T04:43:57.520Z,24.83
2023-01-19T04:47:00.008Z,25.77
2023-01-19T04:50:02.472Z,25.73
2023-01-19T04:53:04.803Z,28.38
2023-01-19T04:56:07.285Z,39.65
2023-01-19T04:59:09.620Z,26.92
2023-01-19T05:02:11.944Z,26.90
2023-01-19T05:05:14.735Z,24.75
2023-01-19T05:08:17.175Z,24.73
2023-01-19T05:11:19.476Z,24.80
2023-01-19T05:14:21.817Z,28.92
2023-01-19T05:17:24.186Z,39.30
2023-01-19T05:20:26.494Z,39.13
2023-01-19T05:23:31.105Z,36.78
2023-01-19T05:26:33.536Z,27.90
2023-01-19T05:29:35.881Z,26.88
2023-01-19T05:32:38.246Z,25.80
2023-01-19T05:35:40.549Z,26.08
2023-01-19T05:38:42.796Z,26.63
2023-01-19T05:41:45.688Z,26.50
2023-01-19T05:44:48.378Z,27.43
2023-01-19T05:47:51.042Z,33.70
2023-01-19T05:50:58.247Z,34.78
2023-01-19T05:54:01.134Z,29.08
2023-01-19T05:57:04.642Z,30.63
2023-01-19T06:00:07.624Z,29.95
2023-01-19T06:03:11.469Z,32.63
2023-01-19T06:06:15.128Z,28.15
2023-01-19T06:09:17.917Z,29.23
2023-01-19T06:12:20.410Z,33.17
2023-01-19T06:15:22.994Z,27.90
2023-01-19T06:18:25.438Z,28.35
2023-01-19T06:21:27.834Z,31.05
2023-01-19T06:24:30.349Z,28.13
2023-01-19T06:27:32.684Z,28.42
2023-01-19T06:30:35.038Z,37.50
2023-01-19T06:33:37.396Z,44.95
2023-01-19T06:36:39.793Z,42.67
2023-01-19T06:39:42.425Z,33.70
2023-01-19T06:42:44.693Z,32.58
2023-01-19T06:45:47.593Z,35.63
2023-01-19T06:48:49.987Z,43.17
2023-01-19T06:51:52.400Z,32.72
2023-01-19T06:54:54.905Z,32.85
2023-01-19T06:57:59.842Z,36.78
2023-01-19T07:01:03.865Z,29.60
2023-01-19T07:07:08.473Z,40.17
2023-01-19T07:10:12.039Z,50.45
2023-01-19T07:13:14.383Z,40.40
2023-01-19T07:16:16.717Z,49.75
2023-01-19T07:19:19.155Z,52.63
2023-01-19T07:22:21.561Z,55.58
2023-01-19T07:25:23.961Z,47.13
2023-01-19T07:28:26.370Z,55.22
2023-01-19T07:31:28.774Z,61.33
2023-01-19T07:34:31.350Z,45.05
2023-01-19T07:37:33.714Z,47.92
2023-01-19T07:40:36.067Z,45.83
2023-01-19T07:43:38.686Z,39.10
2023-01-19T07:46:41.347Z,44.28
2023-01-19T07:49:43.620Z,50.55
2023-01-19T07:52:46.173Z,43.08
2023-01-19T07:55:54.980Z,42.88
2023-01-19T07:58:57.860Z,45.60
2023-01-19T08:02:00.557Z,49.05
2023-01-19T08:05:03.113Z,48.28
2023-01-19T08:08:05.714Z,49.17
2023-01-19T08:11:08.596Z,65.15
2023-01-19T08:14:11.174Z,61.42
2023-01-19T08:17:14.213Z,50.97
2023-01-19T08:20:16.488Z,49.90
2023-01-19T08:23:19.793Z,47.50
2023-01-19T08:26:29.922Z,48.50
2023-01-19T08:29:33.764Z,47.38
2023-01-19T08:32:36.088Z,51.72
2023-01-19T08:35:41.380Z,53.15
2023-01-19T08:38:45.704Z,47.08
2023-01-19T08:41:47.988Z,47.25
2023-01-19T08:44:58.186Z,52.80
2023-01-19T08:48:01.272Z,48.58
2023-01-19T08:51:03.674Z,58.35
2023-01-19T08:54:06.072Z,58.45
2023-01-19T08:57:08.357Z,58.38
2023-01-19T09:00:11.218Z,48.63
2023-01-19T09:03:14.036Z,54.50
2023-01-19T09:06:18.602Z,54.72
2023-01-19T09:09:20.899Z,62.70
2023-01-19T09:12:23.213Z,55.90
2023-01-19T09:15:25.578Z,55.47
2023-01-19T09:18:27.920Z,51.03
2023-01-19T09:21:30.268Z,46.92
2023-01-19T09:24:32.596Z,49.63
2023-01-19T09:27:35.074Z,55.58
2023-01-19T09:30:40.712Z,53.55
2023-01-19T09:33:43.093Z,55.30
2023-01-19T09:36:47.483Z,50.20
2023-01-19T09:39:49.814Z,56.75
2023-01-19T09:43:05.124Z,69.53
2023-01-19T09:46:16.234Z,60.03
2023-01-19T09:49:33.443Z,59.40
2023-01-19T09:52:37.724Z,57.22
2023-01-19T09:55:42.725Z,72.82
2023-01-19T09:58:45.113Z,71.03
2023-01-19T10:02:15.715Z,73.75
2023-01-19T10:05:22.210Z,57.53
2023-01-19T10:08:36.456Z,58.10
2023-01-19T10:15:04.541Z,65.30
2023-01-19T10:18:06.731Z,67.15
2023-01-19T10:21:11.943Z,71.32
2023-01-19T10:24:23.176Z,59.95
2023-01-19T10:27:29.545Z,58.35
2023-01-19T10:30:32.090Z,51.88
2023-01-19T10:33:35.397Z,68.80
2023-01-19T10:36:40.079Z,43.67
2023-01-19T10:39:42.970Z,71.13
2023-01-19T10:42:45.435Z,44.05
2023-01-19T10:45:50.775Z,62.58
2023-01-19T10:48:54.528Z,59.50
2023-01-19T10:51:58.956Z,57.35
2023-01-19T10:55:03.444Z,68.13
2023-01-19T10:58:08.046Z,68.57
2023-01-19T11:01:19.978Z,64.45
2023-01-19T11:04:31.774Z,61.40
2023-01-19T11:07:35.195Z,55.78
2023-01-19T11:10:38.651Z,47.40
2023-01-19T11:13:41.874Z,48.53
2023-01-19T11:16:49.845Z,47.60
2023-01-19T11:19:57.939Z,61.13
2023-01-19T11:23:16.067Z,56.55
2023-01-19T11:26:27.937Z,57.85
2023-01-19T11:29:30.803Z,61.20
2023-01-19T11:32:36.991Z,56.08
2023-01-19T11:35:41.297Z,70.05
2023-01-19T11:38:46.186Z,59.67
2023-01-19T11:41:51.707Z,66.88
2023-01-19T11:45:03.734Z,71.30
2023-01-19T11:48:06.772Z,73.38
2023-01-19T11:51:14.938Z,45.73
2023-01-19T11:54:23.911Z,62.33
2023-01-19T11:57:26.572Z,90.22
2023-01-19T12:00:43.797Z,66.80
2023-01-19T12:03:54.693Z,64.38
2023-01-19T12:06:58.451Z,74.65
2023-01-19T12:10:13.691Z,76.63
2023-01-19T12:13:35.012Z,67.80
2023-01-19T12:16:39.439Z,71.05
2023-01-19T12:19:46.126Z,64.35
2023-01-19T12:23:03.163Z,60.00
2023-01-19T12:26:22.009Z,65.75
2023-01-19T12:29:28.336Z,62.85
2023-01-19T12:32:35.596Z,65.63
2023-01-19T12:35:57.230Z,61.28
2023-01-19T12:39:18.711Z,61.47
2023-01-19T12:42:21.529Z,66.72
2023-01-19T12:45:25.849Z,67.47
2023-01-19T12:48:28.439Z,68.15
2023-01-19T12:51:30.746Z,68.45
2023-01-19T12:54:33.502Z,73.70
2023-01-19T12:57:39.770Z,63.90
2023-01-19T13:00:43.947Z,62.63
2023-01-19T13:04:09.748Z,56.30
2023-01-19T13:07:17.989Z,56.75
2023-01-19T13:10:54.376Z,63.55
2023-01-19T13:13:59.511Z,55.28
2023-01-19T13:17:02.986Z,51.80
2023-01-19T13:20:19.515Z,63.80
2023-01-19T13:23:21.916Z,143.38
2023-01-19T13:26:35.427Z,184.68
2023-01-19T13:29:41.927Z,98.28
2023-01-19T13:32:44.281Z,62.38
2023-01-19T13:35:55.611Z,52.78
2023-01-19T13:39:28.544Z,49.63
2023-01-19T13:42:42.020Z,44.50
2023-01-19T13:45:50.716Z,47.57
2023-01-19T13:48:57.177Z,45.25
2023-01-19T13:52:14.345Z,51.47
2023-01-19T13:55:17.181Z,48.42
2023-01-19T13:58:24.242Z,47.47
2023-01-19T14:01:29.278Z,44.60
2023-01-19T14:04:33.946Z,41.38
2023-01-19T14:07:36.333Z,41.45
2023-01-19T14:10:47.383Z,46.17
2023-01-19T14:13:49.700Z,41.92
2023-01-19T14:16:52.039Z,41.25
2023-01-19T14:19:56.935Z,40.55
2023-01-19T14:22:59.185Z,45.45
2023-01-19T14:26:01.624Z,44.47
2023-01-19T14:29:22.241Z,46.08
2023-01-19T14:32:25.508Z,50.80
2023-01-19T14:35:30.142Z,35.05
2023-01-19T14:38:32.535Z,47.78
2023-01-19T14:41:41.445Z,48.20
2023-01-19T14:44:48.240Z,43.88
2023-01-19T14:48:18.412Z,48.78
2023-01-19T14:51:23.283Z,46.97
2023-01-19T14:54:31.570Z,43.10
2023-01-19T14:57:36.696Z,45.45
2023-01-19T15:00:39.618Z,38.78
2023-01-19T15:03:45.376Z,37.15
2023-01-19T15:06:48.567Z,38.90
2023-01-19T15:09:51.205Z,37.45
2023-01-19T15:12:54.829Z,36.92
2023-01-19T15:15:58.517Z,39.30
2023-01-19T15:19:01.051Z,41.38
2023-01-19T15:22:06.163Z,43.85
2023-01-19T15:25:09.068Z,67.93
2023-01-19T15:28:18.250Z,42.13
2023-01-19T15:31:22.585Z,68.95
2023-01-19T15:34:24.971Z,47.67
2023-01-19T15:37:27.408Z,41.92
2023-01-19T15:40:29.643Z,46.38
2023-01-19T15:43:31.962Z,53.65
2023-01-19T15:46:34.859Z,64.93
2023-01-19T15:49:37.182Z,58.28
2023-01-19T15:52:39.468Z,49.38
2023-01-19T15:55:43.102Z,43.22
2023-01-19T15:58:46.706Z,45.53
2023-01-19T16:01:50.895Z,52.17
2023-01-19T16:04:53.448Z,44.30
2023-01-19T16:07:56.137Z,46.97
2023-01-19T16:10:58.539Z,48.67
2023-01-19T16:14:01.368Z,42.45
2023-01-19T16:17:03.819Z,45.92
2023-01-19T16:20:07.362Z,47.72
2023-01-19T16:23:14.747Z,44.50
2023-01-19T16:26:33.229Z,47.75
2023-01-19T16:29:35.545Z,47.83
2023-01-19T16:32:38.544Z,45.85
2023-01-19T16:35:40.885Z,42.20
2023-01-19T16:38:43.247Z,51.33
2023-01-19T16:41:46.316Z,43.83
2023-01-19T16:44:48.659Z,43.72
2023-01-19T16:47:52.265Z,49.97
2023-01-19T16:51:01.342Z,54.33
2023-01-19T16:54:03.869Z,56.30
2023-01-19T16:57:06.360Z,56.20
2023-01-19T17:00:10.651Z,51.88
2023-01-19T17:03:13.117Z,52.50
2023-01-19T17:06:20.487Z,45.03
2023-01-19T17:09:22.897Z,44.13
2023-01-19T17:12:25.257Z,49.05
2023-01-19T17:15:27.524Z,46.35
2023-01-19T17:18:32.903Z,41.67
2023-01-19T17:21:35.877Z,43.63
2023-01-19T17:24:42.380Z,41.83
2023-01-19T17:27:44.791Z,45.22
2023-01-19T17:30:47.293Z,49.25
2023-01-19T17:33:50.893Z,41.80
2023-01-19T17:36:53.220Z,32.58
2023-01-19T17:39:56.875Z,43.95
2023-01-19T17:42:59.198Z,48.20
2023-01-19T17:46:01.601Z,47.70
2023-01-19T17:49:06.441Z,49.30
2023-01-19T17:52:12.850Z,43.53
2023-01-19T17:55:20.205Z,49.40
2023-01-19T17:58:23.727Z,45.75
2023-01-19T18:01:28.806Z,43.38
2023-01-19T18:04:32.243Z,45.40
2023-01-19T18:07:34.679Z,47.13
2023-01-19T18:10:37.829Z,47.08
2023-01-19T18:13:42.125Z,46.97
2023-01-19T18:16:44.435Z,45.75
2023-01-19T18:19:46.843Z,46.78
2023-01-19T18:22:49.216Z,47.25
2023-01-19T18:25:51.523Z,47.72
2023-01-19T18:28:56.756Z,45.60
2023-01-19T18:31:59.008Z,47.05
2023-01-19T18:35:05.366Z,48.05
2023-01-19T18:38:12.866Z,60.75
2023-01-19T18:41:17.394Z,52.38
2023-01-19T18:44:19.650Z,48.63
2023-01-19T18:47:21.998Z,53.13
2023-01-19T18:50:24.278Z,52.13
2023-01-19T18:53:26.645Z,46.72
2023-01-19T18:56:29.155Z,49.38
2023-01-19T18:59:31.496Z,51.58
2023-01-19T19:02:33.806Z,51.70
2023-01-19T19:05:36.343Z,53.25
2023-01-19T19:08:38.856Z,52.22
2023-01-19T19:11:41.218Z,51.03
2023-01-19T19:14:43.606Z,49.67
2023-01-19T19:17:45.946Z,51.15
2023-01-19T19:20:48.344Z,48.72
2023-01-19T19:23:58.283Z,58.83
2023-01-19T19:27:00.564Z,63.63
2023-01-19T19:30:04.202Z,44.73
2023-01-19T19:33:07.863Z,66.40
2023-01-19T19:36:11.913Z,49.08
2023-01-19T19:39:14.200Z,50.40
2023-01-19T19:42:16.695Z,55.58
2023-01-19T19:45:19.574Z,61.10
2023-01-19T19:48:21.931Z,52.03
2023-01-19T19:51:27.099Z,49.72
2023-01-19T19:54:29.614Z,51.28
2023-01-19T19:57:31.871Z,48.00
2023-01-19T20:00:34.223Z,48.72
2023-01-19T20:03:36.731Z,50.40
2023-01-19T20:06:45.002Z,53.10
2023-01-19T20:09:47.696Z,56.05
2023-01-19T20:12:51.783Z,60.25
2023-01-19T20:18:56.708Z,47.80
2023-01-19T20:21:59.057Z,49.95
2023-01-19T20:25:01.359Z,47.15
2023-01-19T20:28:03.734Z,46.83
2023-01-19T20:31:22.615Z,46.33
2023-01-19T20:34:30.451Z,59.53
2023-01-19T20:37:49.936Z,59.20
2023-01-19T20:40:54.168Z,56.28
2023-01-19T20:43:56.567Z,49.67
2023-01-19T20:46:59.037Z,48.90
2023-01-19T20:50:01.474Z,46.97
2023-01-19T20:53:04.080Z,46.55
2023-01-19T20:56:12.731Z,43.38
2023-01-19T20:59:15.247Z,42.60
2023-01-19T21:02:17.788Z,42.35
2023-01-19T21:05:20.148Z,39.30
2023-01-19T21:08:22.711Z,42.70
2023-01-19T21:11:25.690Z,41.45
2023-01-19T21:14:27.998Z,41.13
2023-01-19T21:17:30.355Z,40.25
2023-01-19T21:20:33.113Z,39.25
2023-01-19T21:23:35.499Z,37.45
2023-01-19T21:26:38.034Z,36.35
2023-01-19T21:29:41.019Z,32.72
2023-01-19T21:32:43.291Z,30.27
2023-01-19T21:35:56.864Z,30.80
2023-01-19T21:39:00.980Z,31.25
2023-01-19T21:42:03.610Z,30.85
2023-01-19T21:45:06.978Z,30.55
2023-01-19T21:48:09.764Z,26.15
2023-01-19T21:51:13.398Z,29.83
2023-01-19T21:54:15.717Z,29.75
2023-01-19T21:57:19.764Z,28.95
2023-01-19T22:00:22.159Z,30.13
2023-01-19T22:03:25.490Z,31.67
2023-01-19T22:06:28.563Z,31.92
2023-01-19T22:09:30.898Z,30.50
2023-01-19T22:12:33.190Z,28.75
2023-01-19T22:15:35.512Z,29.70
2023-01-19T22:18:39.241Z,28.95
2023-01-19T22:21:41.595Z,28.02
2023-01-19T22:24:46.730Z,26.67
2023-01-19T22:27:49.092Z,25.25
2023-01-19T22:30:51.621Z,26.50
2023-01-19T22:33:54.589Z,26.45
2023-01-19T22:36:56.965Z,25.48
2023-01-19T22:39:59.201Z,27.92
2023-01-19T22:43:01.514Z,26.55
2023-01-19T22:46:04.249Z,26.73
2023-01-19T22:49:07.814Z,25.85
2023-01-19T22:52:10.083Z,21.52
2023-01-19T22:55:12.726Z,26.40
2023-01-19T22:58:15.394Z,28.77
2023-01-19T23:01:21.089Z,29.02
2023-01-19T23:04:23.744Z,30.35
2023-01-19T23:07:26.029Z,29.33
2023-01-19T23:10:28.480Z,30.60
2023-01-19T23:13:30.791Z,30.92
2023-01-19T23:16:33.180Z,31.33
2023-01-19T23:19:35.632Z,36.88
2023-01-19T23:22:38.083Z,42.53
2023-01-19T23:25:40.431Z,44.03
2023-01-19T23:28:43.341Z,42.20
2023-01-19T23:31:47.439Z,43.38
2023-01-19T23:34:49.746Z,40.88
2023-01-19T23:37:52.115Z,37.72
2023-01-19T23:40:57.990Z,36.90
2023-01-19T23:44:00.269Z,32.63
2023-01-19T23:47:02.618Z,31.08
2023-01-19T23:50:05.844Z,30.80
2023-01-19T23:53:08.266Z,23.25
2023-01-19T23:56:18.333Z,26.95
2023-01-19T23:59:20.627Z,26.33
